Time;durP1;ratioP1;P1;durP2;ratioP2;P2;SDS_P1;SDS_P2;PMS_P1;PMS_P2;Temp;Humidity;BMP_temperature;BMP_pressure;BME280_temperature;BME280_humidity;BME280_pressure;Samples;Min_cycle;Max_cycle;Signal;HPM_P1;HPM_P2
2022/06/11 00:01:24;;;;;;;5.90;4.45;;;;;;;16.15;100.00;156578.53;4956436;28;20086;-80
2022/06/11 00:03:53;;;;;;;5.55;4.53;;;;;;;16.15;100.00;156578.53;4929609;29;20111;-80
2022/06/11 00:06:20;;;;;;;6.75;4.63;;;;;;;16.07;100.00;156559.25;4946853;28;20534;-82
2022/06/11 00:08:46;;;;;;;9.65;4.85;;;;;;;16.08;100.00;156561.78;4936106;28;20503;-81
2022/06/11 00:11:13;;;;;;;5.95;4.15;;;;;;;16.08;100.00;156561.78;4941551;29;20068;-82
2022/06/11 00:13:40;;;;;;;8.68;4.75;;;;;;;16.09;100.00;156564.38;4919350;28;20035;-82
2022/06/11 00:16:06;;;;;;;6.60;4.32;;;;;;;16.08;100.00;156560.50;4954282;28;20043;-81
2022/06/11 00:18:34;;;;;;;9.25;4.70;;;;;;;15.98;100.00;156536.06;4941446;29;20064;-80
2022/06/11 00:21:00;;;;;;;9.63;4.65;;;;;;;16.07;100.00;156557.97;4933056;29;20090;-79
2022/06/11 00:23:26;;;;;;;7.30;4.20;;;;;;;15.99;100.00;156537.34;4936298;29;20557;-81
2022/06/11 00:25:53;;;;;;;8.25;4.50;;;;;;;16.02;100.00;156545.09;4944525;28;20130;-80
2022/06/11 00:28:19;;;;;;;7.75;4.80;;;;;;;15.98;100.00;156534.78;4947106;28;20034;-81
2022/06/11 00:30:45;;;;;;;11.05;4.75;;;;;;;15.94;100.00;156525.78;4949173;28;20711;-78
2022/06/11 00:33:11;;;;;;;7.97;4.47;;;;;;;15.93;100.00;156523.19;4940664;29;20043;-82
2022/06/11 00:35:39;;;;;;;7.30;4.80;;;;;;;15.94;100.00;156525.78;4951278;29;20035;-81
2022/06/11 00:38:06;;;;;;;9.65;4.93;;;;;;;15.91;100.00;156518.03;4950946;28;20051;-80
2022/06/11 00:40:34;;;;;;;7.47;4.57;;;;;;;15.83;100.00;156497.47;4952568;29;20043;-79
2022/06/11 00:43:00;;;;;;;5.90;4.32;;;;;;;15.90;100.00;156516.75;4943924;28;20405;-81
2022/06/11 00:45:30;;;;;;;8.73;4.35;;;;;;;15.90;100.00;156516.75;4931040;29;20035;-82
2022/06/11 00:48:13;;;;;;;5.30;4.18;;;;;;;15.89;100.00;156512.88;4945043;28;20054;-82
2022/06/11 00:50:47;;;;;;;6.45;4.22;;;;;;;15.92;100.00;156520.63;4923778;29;20054;-78
2022/06/11 00:53:26;;;;;;;8.32;4.60;;;;;;;15.95;100.00;156529.66;4933057;28;20089;-83
2022/06/11 00:55:52;;;;;;;10.07;4.82;;;;;;;15.88;100.00;156510.28;4943668;28;20422;-81
2022/06/11 00:58:22;;;;;;;7.70;4.20;;;;;;;15.95;100.00;156529.66;4938814;29;20030;-82
2022/06/11 01:00:53;;;;;;;6.55;4.80;;;;;;;15.97;100.00;156533.47;4945716;29;20039;-81
2022/06/11 01:03:41;;;;;;;6.72;4.38;;;;;;;15.93;100.00;156524.44;4962207;28;20095;-81
2022/06/11 01:06:39;;;;;;;9.18;4.50;;;;;;;15.98;100.00;156534.78;4950151;28;20047;-80
2022/06/11 01:09:17;;;;;;;6.68;4.22;;;;;;;16.04;100.00;156550.22;4958685;28;20835;-77
2022/06/11 01:11:45;;;;;;;10.98;4.35;;;;;;;16.12;100.00;156572.13;4945792;28;20039;-78
2022/06/11 01:14:30;;;;;;;8.43;5.28;;;;;;;16.19;100.00;156588.84;4954465;28;20099;-82
2022/06/11 01:17:08;;;;;;;10.05;4.50;;;;;;;16.09;100.00;156564.38;4932488;28;20054;-81
2022/06/11 01:20:01;;;;;;;10.60;5.32;;;;;;;16.29;100.00;156614.59;4929786;29;20074;-81
2022/06/11 01:22:36;;;;;;;10.30;5.03;;;;;;;16.38;100.00;156635.19;4934679;29;20609;-81
2022/06/11 01:25:20;;;;;;;7.78;4.85;;;;;;;16.21;100.00;156593.97;4947055;28;20501;-81
2022/06/11 01:28:18;;;;;;;12.82;4.75;;;;;;;16.13;100.00;156573.41;4938322;29;20036;-82
2022/06/11 01:30:54;;;;;;;8.20;4.40;;;;;;;15.98;100.00;156536.06;4930696;28;20118;-81
2022/06/11 01:33:44;;;;;;;9.48;4.97;;;;;;;15.98;100.00;156534.78;4948125;28;20134;-82
2022/06/11 01:36:21;;;;;;;9.27;5.15;;;;;;;15.96;100.00;156530.91;4914290;29;20059;-83
2022/06/11 01:38:55;;;;;;;8.32;4.63;;;;;;;15.87;100.00;156509.03;4923500;28;20080;-80
2022/06/11 01:41:25;;;;;;;6.20;4.43;;;;;;;15.85;100.00;156503.88;4947250;28;20031;-81
2022/06/11 01:43:56;;;;;;;7.30;4.72;;;;;;;15.81;100.00;156493.59;4928627;28;20749;-82
2022/06/11 01:46:31;;;;;;;6.43;4.72;;;;;;;15.81;100.00;156492.31;4931800;29;20039;-81
2022/06/11 01:49:05;;;;;;;9.60;4.70;;;;;;;15.85;100.00;156502.59;4941276;29;20047;-80
2022/06/11 01:51:43;;;;;;;9.65;4.68;;;;;;;15.83;100.00;156498.72;4960885;28;20031;-80
2022/06/11 01:54:16;;;;;;;14.25;5.40;;;;;;;15.79;100.00;156487.16;4947576;29;20039;-79
2022/06/11 01:57:00;;;;;;;9.27;4.75;;;;;;;15.81;100.00;156492.31;4934756;29;20121;-81
2022/06/11 01:59:59;;;;;;;9.98;4.80;;;;;;;15.84;100.00;156501.31;4911656;29;20043;-81
2022/06/11 02:02:41;;;;;;;7.47;4.35;;;;;;;15.81;100.00;156493.59;4924849;29;20070;-81
2022/06/11 02:05:13;;;;;;;9.80;4.47;;;;;;;15.84;100.00;156501.31;4921574;28;20041;-78
2022/06/11 02:07:49;;;;;;;8.55;4.15;;;;;;;15.85;100.00;156502.59;4963003;28;20078;-81
2022/06/11 02:10:22;;;;;;;8.10;4.38;;;;;;;15.86;100.00;156505.16;4937731;29;20039;-80
2022/06/11 02:12:55;;;;;;;8.43;4.20;;;;;;;15.85;100.00;156503.88;4950504;29;20039;-75
2022/06/11 02:15:29;;;;;;;;;;;;;;;15.89;100.00;156512.88;4949247;28;20028;-81
2022/06/11 02:18:01;;;;;;;8.02;4.32;;;;;;;15.87;100.00;156507.75;4936548;29;19910;-81
2022/06/11 02:20:34;;;;;;;7.78;4.47;;;;;;;15.84;100.00;156500.00;4946029;29;20035;-80
2022/06/11 02:23:13;;;;;;;10.65;4.70;;;;;;;15.86;100.00;156505.16;4936404;28;20036;-82
2022/06/11 02:25:50;;;;;;;5.45;4.30;;;;;;;15.87;100.00;156507.75;4950191;29;20038;-80
2022/06/11 02:28:21;;;;;;;6.68;4.53;;;;;;;15.88;100.00;156510.28;4923005;29;20044;-76
2022/06/11 02:30:49;;;;;;;7.75;4.57;;;;;;;15.93;100.00;156524.44;4932462;29;20098;-79
2022/06/11 02:33:18;;;;;;;7.32;4.57;;;;;;;15.77;100.00;156483.31;4936221;29;20054;-79
2022/06/11 02:35:50;;;;;;;9.80;4.20;;;;;;;15.96;100.00;156530.91;4964191;28;20359;-82
2022/06/11 02:38:19;;;;;;;7.55;4.72;;;;;;;15.91;100.00;156519.31;4967723;28;20047;-77
2022/06/11 02:41:07;;;;;;;5.07;3.97;;;;;;;15.91;100.00;156518.03;4953855;29;20031;-79
2022/06/11 02:43:34;;;;;;;8.40;4.35;;;;;;;15.92;100.00;156520.63;4930094;29;20039;-79
2022/06/11 02:46:40;;;;;;;13.82;4.80;;;;;;;15.96;100.00;156532.19;4969756;28;20106;-81
2022/06/11 02:48:47;;;;;;;6.68;4.32;;;;;;;16.01;100.00;156543.81;4962059;28;20032;-79
2022/06/11 02:51:12;;;;;;;9.85;4.97;;;;;;;15.99;100.00;156537.34;4940708;28;20023;-78
2022/06/11 02:53:38;;;;;;;8.90;4.57;;;;;;;15.99;100.00;156538.63;4940062;29;20039;-81
2022/06/11 02:56:07;;;;;;;7.28;4.22;;;;;;;16.01;100.00;156542.47;4926544;28;20043;-80
2022/06/11 02:58:33;;;;;;;9.35;5.00;;;;;;;16.02;100.00;156545.09;4942341;29;20039;-78
2022/06/11 03:00:58;;;;;;;11.02;5.10;;;;;;;16.03;100.00;156547.63;4967514;28;20074;-80
2022/06/11 03:03:24;;;;;;;8.23;5.10;;;;;;;16.03;100.00;156548.94;4957340;28;20040;-79
2022/06/11 03:05:50;;;;;;;7.70;4.80;;;;;;;16.06;100.00;156555.38;4961023;28;20067;-78
2022/06/11 03:08:16;;;;;;;7.18;4.57;;;;;;;15.90;100.00;156515.50;4961844;28;20103;-77
2022/06/11 03:10:42;;;;;;;8.52;4.82;;;;;;;16.04;100.00;156551.50;4959102;29;20046;-78
2022/06/11 03:13:08;;;;;;;6.70;4.60;;;;;;;15.99;100.00;156538.63;4950823;29;20067;-80
2022/06/11 03:15:35;;;;;;;10.90;4.70;;;;;;;15.95;100.00;156529.66;4919279;29;20044;-80
2022/06/11 03:18:04;;;;;;;6.70;4.10;;;;;;;16.04;100.00;156550.22;4946626;28;20115;-80
2022/06/11 03:20:31;;;;;;;8.35;3.97;;;;;;;16.00;100.00;156541.22;4953401;29;20043;-81
2022/06/11 03:22:57;;;;;;;8.57;4.47;;;;;;;16.05;100.00;156554.09;4953058;29;20122;-81
2022/06/11 03:25:24;;;;;;;10.35;4.13;;;;;;;16.09;100.00;156563.09;4947780;29;20031;-80
2022/06/11 03:27:50;;;;;;;8.15;4.60;;;;;;;16.04;100.00;156551.50;4955493;28;20070;-78
2022/06/11 03:30:18;;;;;;;6.50;3.75;;;;;;;16.04;100.00;156550.22;4936365;29;20031;-80
2022/06/11 03:32:43;;;;;;;10.80;4.45;;;;;;;16.07;100.00;156557.97;4937454;29;20063;-79
2022/06/11 03:35:14;;;;;;;7.45;4.13;;;;;;;15.96;100.00;156530.91;4952662;28;20039;-82
2022/06/11 03:37:40;;;;;;;8.63;4.28;;;;;;;16.04;100.00;156550.22;4953064;29;20067;-79
2022/06/11 03:40:08;;;;;;;5.80;3.90;;;;;;;16.09;100.00;156563.09;4958957;28;20516;-82
2022/06/11 03:42:34;;;;;;;10.50;4.40;;;;;;;15.99;100.00;156537.34;4963674;28;20039;-79
2022/06/11 03:44:59;;;;;;;7.43;4.50;;;;;;;16.07;100.00;156559.25;4944346;28;20024;-81
2022/06/11 03:47:25;;;;;;;9.65;4.50;;;;;;;16.14;100.00;156577.28;4938590;29;20097;-79
2022/06/11 03:49:52;;;;;;;8.60;4.60;;;;;;;16.03;100.00;156547.63;4958331;28;20031;-80
2022/06/11 03:52:17;;;;;;;7.63;4.43;;;;;;;16.13;100.00;156574.69;4961397;29;20066;-83
2022/06/11 03:54:43;;;;;;;7.20;4.03;;;;;;;16.04;100.00;156550.22;4952531;28;20035;-80
2022/06/11 03:57:09;;;;;;;6.13;3.78;;;;;;;16.00;100.00;156539.94;4941873;29;20049;-82
2022/06/11 03:59:35;;;;;;;6.45;4.00;;;;;;;15.96;100.00;156532.19;4946966;29;20067;-78
2022/06/11 04:02:01;;;;;;;6.40;3.90;;;;;;;15.89;100.00;156512.88;4953137;28;20042;-79
2022/06/11 04:04:27;;;;;;;7.40;3.58;;;;;;;15.75;100.00;156478.16;4956494;28;20123;-81
2022/06/11 04:06:57;;;;;;;6.85;4.15;;;;;;;15.77;100.00;156483.31;4946261;28;20437;-82
2022/06/11 04:09:35;;;;;;;8.73;4.60;;;;;;;15.72;100.00;156471.63;4951245;28;20039;-79
2022/06/11 04:12:05;;;;;;;11.93;4.85;;;;;;;15.68;100.00;156461.34;4936010;28;20035;-78
2022/06/11 04:14:31;;;;;;;8.60;4.50;;;;;;;15.72;100.00;156470.38;4952736;29;20038;-81
2022/06/11 04:17:03;;;;;;;7.05;4.05;;;;;;;15.75;100.00;156478.16;4954582;28;20047;-79
2022/06/11 04:19:33;;;;;;;8.60;4.57;;;;;;;15.82;100.00;156494.88;4970644;28;20502;-78
2022/06/11 04:22:01;;;;;;;6.72;4.32;;;;;;;15.89;100.00;156514.16;4950767;28;20035;-80
2022/06/11 04:24:28;;;;;;;5.53;4.28;;;;;;;15.90;100.00;156515.50;4946045;29;20036;-81
2022/06/11 04:27:00;;;;;;;11.57;4.63;;;;;;;15.93;100.00;156524.44;4930128;28;20055;-80
2022/06/11 04:29:32;;;;;;;8.55;4.22;;;;;;;15.94;100.00;156527.06;4941133;29;20035;-82
2022/06/11 04:31:59;;;;;;;;;;;;;;;15.90;100.00;156516.75;4948519;28;20047;-80
2022/06/11 04:34:27;;;;;;;4.95;3.97;;;;;;;15.86;100.00;156506.47;4956355;28;19921;-81
2022/06/11 04:36:54;;;;;;;8.35;4.45;;;;;;;15.96;100.00;156530.91;4942630;28;20452;-80
2022/06/11 04:39:22;;;;;;;9.57;4.00;;;;;;;16.04;100.00;156550.22;4959514;28;20035;-80
2022/06/11 04:41:48;;;;;;;8.27;4.32;;;;;;;16.09;100.00;156564.38;4931896;28;20044;-79
2022/06/11 04:44:14;;;;;;;11.60;5.13;;;;;;;16.05;100.00;156552.78;4939734;29;20047;-80
2022/06/11 04:46:43;;;;;;;9.80;4.68;;;;;;;16.09;100.00;156563.09;4961759;28;20047;-79
2022/06/11 04:49:10;;;;;;;6.65;4.43;;;;;;;16.12;100.00;156570.81;4958896;28;20074;-80
2022/06/11 04:51:36;;;;;;;7.97;4.28;;;;;;;16.08;100.00;156561.78;4913426;29;20508;-80
2022/06/11 04:54:02;;;;;;;7.15;4.13;;;;;;;16.04;100.00;156551.50;4926487;28;20058;-81
2022/06/11 04:56:29;;;;;;;8.20;5.15;;;;;;;15.94;100.00;156527.06;4949101;29;20059;-80
2022/06/11 04:58:56;;;;;;;7.25;3.60;;;;;;;16.01;100.00;156543.81;4935802;29;20125;-80
2022/06/11 05:01:22;;;;;;;10.43;4.93;;;;;;;16.14;100.00;156577.28;4951372;29;20129;-79
2022/06/11 05:03:48;;;;;;;7.43;4.40;;;;;;;16.29;100.00;156613.28;4933391;28;20585;-81
2022/06/11 05:06:17;;;;;;;12.07;4.90;;;;;;;16.40;100.00;156640.34;4960130;28;20087;-80
2022/06/11 05:08:45;;;;;;;11.70;4.45;;;;;;;16.52;100.00;156671.25;4934847;29;20035;-81
2022/06/11 05:11:11;;;;;;;9.15;4.53;;;;;;;16.76;100.00;156730.47;4949919;29;20031;-81
2022/06/11 05:13:40;;;;;;;11.93;4.45;;;;;;;16.90;100.00;156767.88;4927098;29;20066;-79
2022/06/11 05:16:06;;;;;;;8.10;4.50;;;;;;;17.11;100.00;156819.38;4932265;28;20042;-80
2022/06/11 05:18:34;;;;;;;11.07;4.50;;;;;;;17.27;100.00;156860.63;4967273;28;20043;-80
2022/06/11 05:21:01;;;;;;;10.50;4.28;;;;;;;17.38;100.00;156886.38;4938995;28;20036;-79
2022/06/11 05:23:27;;;;;;;6.15;4.13;;;;;;;17.64;100.00;156952.06;4969487;28;20040;-80
2022/06/11 05:25:53;;;;;;;10.50;4.03;;;;;;;17.64;100.00;156952.06;4915689;29;20046;-79
2022/06/11 05:28:23;;;;;;;8.98;3.90;;;;;;;17.78;100.00;156986.84;4961649;28;20031;-80
2022/06/11 05:30:49;;;;;;;8.07;3.85;;;;;;;17.83;100.00;157001.00;4937028;29;20154;-82
2022/06/11 05:33:16;;;;;;;6.22;3.58;;;;;;;17.96;100.00;157032.00;4941545;29;20490;-80
2022/06/11 05:35:42;;;;;;;11.93;4.68;;;;;;;18.20;100.00;157092.59;4960388;28;20043;-82
2022/06/11 05:38:12;;;;;;;9.50;3.97;;;;;;;18.18;100.00;157088.72;4940497;28;20034;-82
2022/06/11 05:40:44;;;;;;;12.30;4.10;;;;;;;18.31;100.00;157119.63;4955671;29;20106;-81
2022/06/11 05:43:12;;;;;;;6.22;3.90;;;;;;;18.39;100.00;157140.28;4954303;29;20034;-79
2022/06/11 05:45:49;;;;;;;9.07;3.63;;;;;;;18.46;100.00;157159.59;4956727;29;20038;-81
2022/06/11 05:48:18;;;;;;;7.63;3.88;;;;;;;18.48;100.00;157163.47;4953000;29;20035;-79
2022/06/11 05:50:48;;;;;;;7.18;3.45;;;;;;;18.47;100.00;157160.88;4963501;28;20040;-80
2022/06/11 05:53:17;;;;;;;7.68;3.58;;;;;;;18.61;100.00;157197.00;4932815;28;20031;-79
2022/06/11 05:55:46;;;;;;;13.07;4.53;;;;;;;18.94;100.00;157279.53;4956406;29;20032;-80
2022/06/11 05:58:24;;;;;;;8.57;3.63;;;;;;;18.91;100.00;157270.50;4937660;29;20188;-82
2022/06/11 06:00:55;;;;;;;8.88;3.97;;;;;;;18.99;100.00;157291.16;4962278;28;20066;-82
2022/06/11 06:03:21;;;;;;;9.23;4.38;;;;;;;18.95;100.00;157282.13;4957444;28;20605;-77
2022/06/11 06:05:47;;;;;;;9.65;3.67;;;;;;;19.27;100.00;157362.09;4939668;28;20050;-79
2022/06/11 06:08:16;;;;;;;10.30;4.50;;;;;;;19.26;100.00;157360.75;4951734;29;20102;-81
2022/06/11 06:10:42;;;;;;;10.07;4.35;;;;;;;19.35;100.00;157382.69;4938589;29;20059;-81
2022/06/11 06:15:53;;;;;;;13.15;4.10;;;;;;;19.59;100.00;157442.00;4944144;28;20119;-79
2022/06/11 06:18:20;;;;;;;10.65;4.10;;;;;;;19.48;100.00;157414.94;4950296;29;20031;-81
2022/06/11 06:20:47;;;;;;;11.27;3.92;;;;;;;19.51;100.00;157421.38;4953154;28;20043;-81
2022/06/11 06:23:13;;;;;;;8.85;3.22;;;;;;;19.46;100.00;157409.78;4947447;28;20061;-79
2022/06/11 06:25:40;;;;;;;8.82;3.55;;;;;;;19.37;100.00;157386.56;4957298;28;20039;-81
2022/06/11 06:28:06;;;;;;;10.45;3.72;;;;;;;19.07;100.00;157311.78;4918139;29;20144;-81
2022/06/11 06:30:33;;;;;;;13.30;4.07;;;;;;;19.01;100.00;157296.31;4962960;29;20410;-79
2022/06/11 06:32:59;;;;;;;9.82;3.97;;;;;;;18.77;100.00;157236.94;4941176;28;20039;-81
2022/06/11 06:35:24;;;;;;;10.73;3.75;;;;;;;18.79;100.00;157240.81;4947221;29;20095;-79
2022/06/11 06:37:51;;;;;;;10.70;3.65;;;;;;;18.60;100.00;157194.38;4945892;29;20067;-82
2022/06/11 06:40:17;;;;;;;9.38;3.70;;;;;;;18.57;100.00;157185.38;4954261;29;20031;-76
2022/06/11 06:42:43;;;;;;;13.43;3.80;;;;;;;18.75;100.00;157231.78;4936877;29;20032;-81
2022/06/11 06:45:10;;;;;;;9.55;4.95;;;;;;;19.01;100.00;157297.59;4935659;28;20038;-80
2022/06/11 06:47:38;;;;;;;9.73;3.97;;;;;;;19.02;100.00;157300.19;4949415;29;20071;-80
2022/06/11 06:50:05;;;;;;;6.55;3.50;;;;;;;19.37;100.00;157387.84;4944675;28;20064;-81
2022/06/11 06:52:30;;;;;;;10.02;3.80;;;;;;;19.56;100.00;157435.56;4949882;28;20047;-80
2022/06/11 06:54:56;;;;;;;7.90;3.60;;;;;;;19.76;100.00;157485.94;4942180;28;20047;-80
2022/06/11 06:57:22;;;;;;;10.32;3.47;;;;;;;19.81;100.00;157498.81;4948385;29;20034;-80
2022/06/11 06:59:48;;;;;;;7.05;2.92;;;;;;;20.14;100.00;157580.13;4947321;28;20043;-80
2022/06/11 07:02:13;;;;;;;6.10;2.78;;;;;;;20.21;100.00;157598.13;4949907;29;20031;-80
2022/06/11 07:04:40;;;;;;;9.88;2.53;;;;;;;20.32;100.00;157625.25;4952803;28;20536;-80
2022/06/11 07:07:05;;;;;;;7.97;2.67;;;;;;;20.25;100.00;157607.19;4943881;28;20035;-81
2022/06/11 07:09:31;;;;;;;7.72;3.03;;;;;;;20.17;100.00;157589.16;4920443;29;20043;-79
2022/06/11 07:11:57;;;;;;;6.25;2.38;;;;;;;20.05;100.00;157556.88;4959182;28;20043;-80
2022/06/11 07:14:23;;;;;;;9.43;2.60;;;;;;;19.97;100.00;157538.81;4939077;29;20039;-81
2022/06/11 07:16:53;;;;;;;4.63;2.10;;;;;;;19.97;100.00;157537.53;4947657;28;20042;-80
2022/06/11 07:19:25;;;;;;;8.10;2.58;;;;;;;19.93;100.00;157527.19;4954431;28;20105;-80
2022/06/11 07:21:54;;;;;;;;;;;;;;;19.95;100.00;157532.38;4920802;28;20042;-80
2022/06/11 07:24:27;;;;;;;7.82;2.80;;;;;;;20.09;100.00;157568.47;4935020;29;19993;-81
2022/06/11 07:26:58;;;;;;;8.52;3.00;;;;;;;20.07;100.00;157562.03;4962610;28;20178;-82
2022/06/11 07:29:44;;;;;;;8.05;3.00;;;;;;;19.88;100.00;157514.31;4954654;29;20170;-80
2022/06/11 07:32:14;;;;;;;7.28;3.65;;;;;;;20.01;100.00;157549.13;4936922;29;20038;-79
2022/06/11 07:34:42;;;;;;;12.23;4.05;;;;;;;19.83;100.00;157504.00;4945769;29;20640;-77
2022/06/11 07:37:08;;;;;;;8.68;3.05;;;;;;;19.81;100.00;157498.81;4949870;29;20071;-81
2022/06/11 07:39:34;;;;;;;10.27;3.30;;;;;;;20.15;100.00;157582.66;4951480;29;20047;-80
2022/06/11 07:41:59;;;;;;;10.73;2.72;;;;;;;20.55;100.00;157684.63;4936772;28;20098;-80
2022/06/11 07:44:26;;;;;;;7.60;2.70;;;;;;;20.89;100.00;157768.53;4932331;29;20040;-80
2022/06/11 07:46:52;;;;;;;7.28;2.80;;;;;;;21.33;98.54;157879.56;4951917;28;20031;-79
2022/06/11 07:49:18;;;;;;;7.53;2.92;;;;;;;21.37;96.38;157889.88;4928498;29;20039;-78
2022/06/11 07:51:45;;;;;;;6.40;2.72;;;;;;;21.67;89.73;157964.84;4949117;28;20050;-78
2022/06/11 07:54:10;;;;;;;5.88;2.65;;;;;;;21.92;92.06;158029.38;4939767;28;20030;-80
2022/06/11 07:56:38;;;;;;;6.50;3.30;;;;;;;22.08;84.27;158069.44;4963218;28;20107;-79
2022/06/11 07:59:05;;;;;;;11.02;3.03;;;;;;;22.33;89.28;158132.75;4948887;29;20099;-77
2022/06/11 08:01:31;;;;;;;7.47;3.03;;;;;;;22.29;82.47;158121.13;4966269;28;20035;-81
2022/06/11 08:03:57;;;;;;;8.23;3.08;;;;;;;22.38;88.70;158144.41;4952307;28;20047;-79
2022/06/11 08:06:23;;;;;;;8.63;2.80;;;;;;;22.29;84.76;158122.41;4947756;28;20046;-78
2022/06/11 08:08:50;;;;;;;8.07;3.28;;;;;;;22.22;87.42;158104.28;4923657;28;20053;-80
2022/06/11 08:11:17;;;;;;;8.82;3.22;;;;;;;21.69;86.96;157970.00;4962162;29;20074;-81
2022/06/11 08:13:42;;;;;;;7.22;3.00;;;;;;;21.73;90.10;157980.31;4954516;28;20039;-80
2022/06/11 08:16:10;;;;;;;7.15;3.50;;;;;;;22.12;84.76;158079.75;4947524;29;20039;-79
2022/06/11 08:18:37;;;;;;;10.48;3.35;;;;;;;22.34;83.37;158134.06;4949777;29;20067;-80
2022/06/11 08:21:03;;;;;;;7.03;3.50;;;;;;;22.67;83.57;158216.72;4963064;28;20054;-78
2022/06/11 08:23:30;;;;;;;7.43;3.65;;;;;;;22.31;85.91;158127.59;4960767;28;20035;-78
2022/06/11 08:25:56;;;;;;;9.18;3.75;;;;;;;22.13;86.76;158082.34;4953357;28;20518;-77
2022/06/11 08:28:23;;;;;;;9.10;4.22;;;;;;;21.83;88.95;158004.84;4937137;29;20043;-78
2022/06/11 08:30:49;;;;;;;6.72;3.88;;;;;;;21.93;85.54;158031.97;4922058;29;20040;-77
2022/06/11 08:33:16;;;;;;;6.28;4.32;;;;;;;21.87;83.77;158016.50;4948523;29;20038;-80
2022/06/11 08:35:42;;;;;;;9.48;4.75;;;;;;;22.22;84.43;158103.00;4931410;29;20071;-79
2022/06/11 08:38:08;;;;;;;9.93;4.35;;;;;;;22.71;80.05;158228.31;4944024;28;20236;-78
2022/06/11 08:40:55;;;;;;;5.53;3.28;;;;;;;22.86;76.73;158265.81;4923333;29;20252;-78
2022/06/11 08:43:20;;;;;;;5.93;3.55;;;;;;;22.79;77.66;158246.44;4935354;29;20035;-77
2022/06/11 08:45:52;;;;;;;7.53;3.60;;;;;;;22.77;76.70;158242.53;4959303;28;20561;-81
2022/06/11 08:48:26;;;;;;;8.32;3.47;;;;;;;22.85;78.58;158263.25;4953253;28;20065;-77
2022/06/11 08:51:20;;;;;;;7.32;2.83;;;;;;;22.89;82.90;158272.28;4937251;29;20039;-81
2022/06/11 08:53:49;;;;;;;7.75;2.60;;;;;;;23.40;77.30;158401.53;4926178;28;20052;-80
2022/06/11 08:56:24;;;;;;;5.05;2.15;;;;;;;23.37;78.31;158393.78;4936760;29;20095;-80
2022/06/11 08:58:56;;;;;;;8.32;2.30;;;;;;;23.37;74.67;158392.50;4944539;29;20068;-82
2022/06/11 09:01:35;;;;;;;5.63;2.30;;;;;;;23.11;79.58;158327.88;4954008;29;20043;-81
2022/06/11 09:04:36;;;;;;;3.60;1.90;;;;;;;22.76;76.98;158238.69;4954535;28;20039;-79
2022/06/11 09:07:40;;;;;;;4.85;1.55;;;;;;;22.88;77.16;158270.97;4932031;28;20067;-80
2022/06/11 09:10:43;;;;;;;5.90;1.75;;;;;;;22.87;71.02;158268.41;4946068;29;20027;-78
2022/06/11 09:13:35;;;;;;;;;;;;;;;22.89;71.94;158272.28;4946174;29;20043;-80
2022/06/11 09:16:18;;;;;;;2.27;1.40;;;;;;;23.12;72.33;158330.47;4926594;29;20020;-80
2022/06/11 09:19:07;;;;;;;6.88;1.45;;;;;;;22.90;68.27;158274.84;4938774;28;20047;-78
2022/06/11 09:21:39;;;;;;;4.85;1.58;;;;;;;23.29;71.98;158374.41;4928460;29;20040;-82
2022/06/11 09:24:19;;;;;;;4.03;1.58;;;;;;;23.86;70.83;158516.63;4957368;28;20047;-81
2022/06/11 09:27:02;;;;;;;4.82;1.70;;;;;;;24.35;63.13;158639.44;4944635;29;20068;-77
2022/06/11 09:29:31;;;;;;;6.32;1.60;;;;;;;24.43;67.24;158660.09;4964015;28;20062;-78
2022/06/11 09:32:17;;;;;;;5.72;1.42;;;;;;;24.32;60.78;158633.00;4945719;29;20046;-81
2022/06/11 09:34:54;;;;;;;5.50;1.40;;;;;;;24.17;63.13;158595.50;4955615;29;20043;-78
2022/06/11 09:37:25;;;;;;;5.45;1.60;;;;;;;23.79;69.19;158499.84;4946985;29;20477;-80
2022/06/11 09:40:20;;;;;;;3.63;1.20;;;;;;;23.73;62.24;158482.97;4948791;28;20458;-78
2022/06/11 09:42:56;;;;;;;2.80;1.33;;;;;;;23.98;60.08;158547.66;4941897;29;20069;-79
2022/06/11 09:45:34;;;;;;;1.63;1.10;;;;;;;24.13;55.86;158583.84;4975233;28;20478;-79
2022/06/11 09:48:06;;;;;;;8.02;1.67;;;;;;;24.17;62.59;158595.50;4917597;28;20055;-77
2022/06/11 09:50:42;;;;;;;5.43;1.50;;;;;;;24.20;59.33;158603.22;4942245;29;20074;-78
2022/06/11 09:53:27;;;;;;;3.63;1.30;;;;;;;24.33;55.34;158634.25;4939360;29;20055;-78
2022/06/11 09:56:08;;;;;;;4.65;1.58;;;;;;;24.40;54.57;158653.66;4940340;29;20040;-78
2022/06/11 09:58:58;;;;;;;3.80;1.40;;;;;;;24.60;58.46;158704.16;4934686;28;20043;-77
2022/06/11 10:01:39;;;;;;;6.88;1.15;;;;;;;24.83;57.19;158762.34;4944096;29;20039;-79
2022/06/11 10:04:08;;;;;;;5.47;1.30;;;;;;;24.92;52.60;158783.00;4937461;29;20038;-78
2022/06/11 10:06:53;;;;;;;4.25;1.02;;;;;;;25.19;58.46;158851.59;4939355;29;20040;-78
2022/06/11 10:09:32;;;;;;;4.53;1.33;;;;;;;25.25;52.09;158867.16;4963721;28;20039;-80
2022/06/11 10:12:19;;;;;;;2.55;1.27;;;;;;;25.11;51.56;158832.19;4959182;28;20038;-81
2022/06/11 10:15:10;;;;;;;8.48;1.50;;;;;;;25.03;53.05;158812.78;4946088;29;20077;-80
2022/06/11 10:17:39;;;;;;;5.05;1.50;;;;;;;25.18;57.97;158848.97;4932328;29;20118;-79
2022/06/11 10:20:26;;;;;;;4.13;1.42;;;;;;;25.35;52.19;158893.00;4943747;29;20058;-79
2022/06/11 10:23:08;;;;;;;4.88;1.48;;;;;;;25.31;49.91;158881.38;4938347;29;20102;-79
2022/06/11 10:25:49;;;;;;;3.30;1.40;;;;;;;25.43;47.99;158912.44;4959599;28;20064;-78
2022/06/11 10:28:39;;;;;;;4.82;1.30;;;;;;;25.47;49.08;158922.78;4920889;29;20042;-77
2022/06/11 10:31:08;;;;;;;7.95;1.75;;;;;;;25.51;47.91;158933.13;4953568;29;20047;-81
2022/06/11 10:34:00;;;;;;;3.75;1.35;;;;;;;25.62;51.68;158961.59;4942670;28;20083;-78
2022/06/11 10:36:31;;;;;;;4.72;1.27;;;;;;;25.57;48.90;158948.63;4953727;28;20047;-78
2022/06/11 10:39:01;;;;;;;7.75;1.70;;;;;;;25.49;49.24;158926.69;4942228;29;20039;-79
2022/06/11 10:41:44;;;;;;;7.10;1.50;;;;;;;25.18;55.13;158850.25;4952470;28;20031;-79
2022/06/11 10:44:27;;;;;;;5.18;1.40;;;;;;;25.18;50.49;158848.97;4949281;28;20073;-79
2022/06/11 10:46:53;;;;;;;8.10;1.30;;;;;;;25.35;54.17;158893.00;4955820;28;20039;-79
2022/06/11 10:49:24;;;;;;;3.25;1.50;;;;;;;25.67;49.90;158973.22;4952639;28;20051;-77
2022/06/11 10:52:04;;;;;;;5.18;1.52;;;;;;;25.83;50.72;159014.63;4931845;29;20107;-78
2022/06/11 10:54:29;;;;;;;6.53;1.70;;;;;;;25.96;51.75;159047.03;4927749;29;20056;-79
2022/06/11 10:57:05;;;;;;;3.97;1.27;;;;;;;26.17;51.26;159100.06;4935944;28;20071;-80
2022/06/11 10:59:43;;;;;;;6.55;1.80;;;;;;;26.03;47.70;159063.81;4937148;29;20052;-78
2022/06/11 11:02:25;;;;;;;5.75;1.70;;;;;;;26.05;47.94;159069.03;4956733;28;20129;-78
2022/06/11 11:04:59;;;;;;;8.18;1.73;;;;;;;25.63;49.05;158964.16;4949700;29;20042;-79
2022/06/11 11:07:26;;;;;;;7.18;1.90;;;;;;;25.71;47.91;158983.59;4950296;29;20062;-79
2022/06/11 11:10:05;;;;;;;11.80;1.95;;;;;;;25.99;51.35;159053.47;4939841;28;20051;-79
2022/06/11 11:12:36;;;;;;;8.23;2.10;;;;;;;25.48;47.57;158924.06;4935562;29;20387;-79
2022/06/11 11:15:15;;;;;;;9.98;2.30;;;;;;;25.23;49.20;158863.25;4941060;29;20706;-79
2022/06/11 11:17:48;;;;;;;10.38;2.10;;;;;;;25.55;50.23;158942.19;4964586;28;20110;-78
2022/06/11 11:20:32;;;;;;;11.05;2.20;;;;;;;25.96;54.12;159047.03;4946926;29;20035;-80
2022/06/11 11:23:04;;;;;;;9.40;2.75;;;;;;;26.12;46.96;159087.13;4941743;28;20104;-78
2022/06/11 11:26:06;;;;;;;8.18;2.25;;;;;;;25.67;50.62;158971.94;4945102;29;20537;-79
2022/06/11 11:28:57;;;;;;;9.20;2.30;;;;;;;25.07;51.64;158821.81;4915204;29;20047;-78
2022/06/11 11:31:27;;;;;;;8.75;1.92;;;;;;;25.66;52.45;158969.38;4933720;29;20129;-79
2022/06/11 11:34:13;;;;;;;10.57;2.10;;;;;;;25.84;53.91;159017.22;4942120;29;20039;-78
2022/06/11 11:36:39;;;;;;;11.15;2.40;;;;;;;26.12;52.83;159087.13;4938053;29;20478;-78
2022/06/11 11:39:15;;;;;;;11.27;2.70;;;;;;;25.61;52.49;158958.97;4945951;28;20043;-79
2022/06/11 11:41:59;;;;;;;5.47;1.92;;;;;;;25.33;52.04;158886.53;4934933;29;20047;-84
2022/06/11 11:44:25;;;;;;;10.95;2.60;;;;;;;25.64;51.47;158966.75;4943502;29;20447;-79